Conti Salome — A8LL8 — position and weather

sailwx.info

Track history (hours):
 
Tides and Currents Weather Stations Pressure Air Temp Water Temp Dewpoint Dewpoint Depression Visibility Wind Speed Wind Dir Waves Ship Positions

Conti Salome

Last reported at 2018-Apr-21 06:00 UTC. Time now 2018-Apr-21 09:50 UTC.
Position N 27°36' W 115°30'.

Length 203 m; beam 28 m; draft 11 m.

Type: Ship. MMSI: 636017730.

Wind from 360 at 20 knots

Barometer 1018.0 mb
Air temperature 15.0 ° C
Visibility: greater than 1.1 NM
Dewpoint 15.0 ° C
Water temperature 15.0 ° C

Date/timePositionNaut miles runAvg speedWind from/ knotsBaromVisibWave heightAir tempDewpointWater temp
2018-Apr-21 06:00N 27°36' W 115°30'17616.0 360 / 201018.0 1.1 15.015.015.0
2018-Apr-20 19:00N 30°18' W 116°48'12917.0 270 / 151020.0 1.1 15.015.016.0
2018-Apr-20 11:24N 32°19' W 117°41'3 8.8
2018-Apr-20 11:00N 32°22' W 117°43'4 7.7
2018-Apr-20 10:30N 32°26' W 117°45'510.9
2018-Apr-20 10:00N 32°30' W 117°49'816.1
2018-Apr-20 09:31N 32°37' W 117°54'1815.7
2018-Apr-20 08:20N 32°52' W 118°06'516.7
2018-Apr-20 08:00N 32°56' W 118°10'2816.5
2018-Apr-20 06:19N 33°17' W 118°33'616.0
2018-Apr-20 05:56N 33°21' W 118°38'716.0
2018-Apr-20 05:30N 33°26' W 118°44'816.4
2018-Apr-20 05:00N 33°33' W 118°49'816.5
2018-Apr-20 04:30N 33°40' W 118°55'916.4
2018-Apr-20 03:57N 33°47' W 119°02'816.7
2018-Apr-20 03:29N 33°53' W 119°07'817.1
2018-Apr-20 03:00N 34°00' W 119°13'714.3
2018-Apr-20 02:30N 34°07' W 119°14'2 0.4
2018-Apr-19 21:43N 34°09' W 119°12'0 0.0
2018-Apr-19 16:50N 34°09' W 119°12'0 0.0
2018-Apr-19 16:26N 34°09' W 119°12'0 0.0
2018-Apr-19 14:07N 34°09' W 119°12'0 0.0
2018-Apr-19 13:57N 34°09' W 119°12'0 0.0
2018-Apr-19 10:50N 34°09' W 119°12'0 0.0
2018-Apr-19 08:58N 34°09' W 119°12'0 0.0
2018-Apr-19 05:21N 34°09' W 119°12'0 0.0
2018-Apr-19 03:02N 34°09' W 119°12'0 0.0
2018-Apr-19 02:59N 34°09' W 119°12'0 0.0
2018-Apr-19 00:55N 34°09' W 119°12'0 0.0
2018-Apr-18 22:12N 34°09' W 119°12'0 0.0
2018-Apr-18 21:08N 34°09' W 119°12'0 0.0
2018-Apr-18 20:56N 34°09' W 119°12'0 0.0
2018-Apr-18 19:41N 34°09' W 119°12'0 0.0
2018-Apr-18 19:29N 34°09' W 119°12'0 0.0
2018-Apr-18 18:58N 34°09' W 119°12'0 0.0
2018-Apr-18 17:40N 34°09' W 119°12'0 0.0
2018-Apr-18 16:18N 34°09' W 119°12'0 0.0
2018-Apr-18 14:11N 34°09' W 119°12'0 0.6
2018-Apr-18 14:00N 34°09' W 119°12'3 6.4
2018-Apr-18 13:30N 34°06' W 119°13'4 7.8
2018-Apr-18 12:59N 34°02' W 119°11'511.0
2018-Apr-18 12:30N 33°57' W 119°09'714.7
2018-Apr-18 12:01N 33°51' W 119°05'815.6
2018-Apr-18 11:30N 33°44' W 118°59'815.7
2018-Apr-18 10:59N 33°38' W 118°54'816.3
2018-Apr-18 10:30N 33°31' W 118°49'816.0
2018-Apr-18 10:00N 33°25' W 118°42'816.6
2018-Apr-18 09:30N 33°19' W 118°36'816.3
2018-Apr-18 09:00N 33°13' W 118°29'816.2
2018-Apr-18 08:30N 33°07' W 118°22'816.1
2018-Apr-18 08:00N 33°01' W 118°16'916.2
2018-Apr-18 07:28N 32°55' W 118°08'816.4
2018-Apr-18 07:00N 32°50' W 118°02'816.3
2018-Apr-18 06:30N 32°44' W 117°55'816.0
2018-Apr-18 06:01N 32°37' W 117°50'815.0
2018-Apr-18 05:30N 32°30' W 117°46'613.0
2018-Apr-18 05:00N 32°24' W 117°44'18016.3
2018-Apr-17 18:00N 29°36' W 116°30'19117.3 360 / 351021.0 1.1 16.016.017.0
2018-Apr-17 07:00N 26°48' W 114°48'61317.0 330 / 261017.0 1.1 16.016.017.0
2018-Apr-15 19:00N 20°06' W 106°24'21317.7 350 / 101015.0 1.1 26.026.023.0
2018-Apr-15 07:00N 18°06' W 103°18'1312.9 010 / 171012.010.8 26.026.028.0
2018-Apr-15 06:00N 18°00' W 103°06'63117.5 290 / 161012.0 1.1 26.026.028.0
2018-Apr-13 18:00N 14°12' W 092°54'   320 / 101014.0 2.2 32.032.030.0
Track history (hours):
 
Tides and Currents Weather Stations Pressure Air Temp Water Temp Dewpoint Dewpoint Depression Visibility Wind Speed Wind Dir Waves Ship Positions

Conti Salome

Last reported at 2018-Apr-21 06:00 UTC. Time now 2018-Apr-21 09:50 UTC.
Position N 27°36' W 115°30'.

Length 203 m; beam 28 m; draft 11 m.

Type: Ship. MMSI: 636017730.

Wind from 360 at 20 knots

Barometer 1018.0 mb
Air temperature 15.0 ° C
Visibility: greater than 1.1 NM
Dewpoint 15.0 ° C
Water temperature 15.0 ° C

Date/timePositionNaut miles runAvg speedWind from/ knotsBaromVisibWave heightAir tempDewpointWater temp
2018-Apr-21 06:00N 27°36' W 115°30'17616.0 360 / 201018.0 1.1 15.015.015.0
2018-Apr-20 19:00N 30°18' W 116°48'12917.0 270 / 151020.0 1.1 15.015.016.0
2018-Apr-20 11:24N 32°19' W 117°41'3 8.8
2018-Apr-20 11:00N 32°22' W 117°43'4 7.7
2018-Apr-20 10:30N 32°26' W 117°45'510.9
2018-Apr-20 10:00N 32°30' W 117°49'816.1
2018-Apr-20 09:31N 32°37' W 117°54'1815.7
2018-Apr-20 08:20N 32°52' W 118°06'516.7
2018-Apr-20 08:00N 32°56' W 118°10'2816.5
2018-Apr-20 06:19N 33°17' W 118°33'616.0
2018-Apr-20 05:56N 33°21' W 118°38'716.0
2018-Apr-20 05:30N 33°26' W 118°44'816.4
2018-Apr-20 05:00N 33°33' W 118°49'816.5
2018-Apr-20 04:30N 33°40' W 118°55'916.4
2018-Apr-20 03:57N 33°47' W 119°02'816.7
2018-Apr-20 03:29N 33°53' W 119°07'817.1
2018-Apr-20 03:00N 34°00' W 119°13'714.3
2018-Apr-20 02:30N 34°07' W 119°14'2 0.4
2018-Apr-19 21:43N 34°09' W 119°12'0 0.0
2018-Apr-19 16:50N 34°09' W 119°12'0 0.0
2018-Apr-19 16:26N 34°09' W 119°12'0 0.0
2018-Apr-19 14:07N 34°09' W 119°12'0 0.0
2018-Apr-19 13:57N 34°09' W 119°12'0 0.0
2018-Apr-19 10:50N 34°09' W 119°12'0 0.0
2018-Apr-19 08:58N 34°09' W 119°12'0 0.0
2018-Apr-19 05:21N 34°09' W 119°12'0 0.0
2018-Apr-19 03:02N 34°09' W 119°12'0 0.0
2018-Apr-19 02:59N 34°09' W 119°12'0 0.0
2018-Apr-19 00:55N 34°09' W 119°12'0 0.0
2018-Apr-18 22:12N 34°09' W 119°12'0 0.0
2018-Apr-18 21:08N 34°09' W 119°12'0 0.0
2018-Apr-18 20:56N 34°09' W 119°12'0 0.0
2018-Apr-18 19:41N 34°09' W 119°12'0 0.0
2018-Apr-18 19:29N 34°09' W 119°12'0 0.0
2018-Apr-18 18:58N 34°09' W 119°12'0 0.0
2018-Apr-18 17:40N 34°09' W 119°12'0 0.0
2018-Apr-18 16:18N 34°09' W 119°12'0 0.0
2018-Apr-18 14:11N 34°09' W 119°12'0 0.6
2018-Apr-18 14:00N 34°09' W 119°12'3 6.4
2018-Apr-18 13:30N 34°06' W 119°13'4 7.8
2018-Apr-18 12:59N 34°02' W 119°11'511.0
2018-Apr-18 12:30N 33°57' W 119°09'714.7
2018-Apr-18 12:01N 33°51' W 119°05'815.6
2018-Apr-18 11:30N 33°44' W 118°59'815.7
2018-Apr-18 10:59N 33°38' W 118°54'816.3
2018-Apr-18 10:30N 33°31' W 118°49'816.0
2018-Apr-18 10:00N 33°25' W 118°42'816.6
2018-Apr-18 09:30N 33°19' W 118°36'816.3
2018-Apr-18 09:00N 33°13' W 118°29'816.2
2018-Apr-18 08:30N 33°07' W 118°22'816.1
2018-Apr-18 08:00N 33°01' W 118°16'916.2
2018-Apr-18 07:28N 32°55' W 118°08'816.4
2018-Apr-18 07:00N 32°50' W 118°02'816.3
2018-Apr-18 06:30N 32°44' W 117°55'816.0
2018-Apr-18 06:01N 32°37' W 117°50'815.0
2018-Apr-18 05:30N 32°30' W 117°46'613.0
2018-Apr-18 05:00N 32°24' W 117°44'18016.3
2018-Apr-17 18:00N 29°36' W 116°30'19117.3 360 / 351021.0 1.1 16.016.017.0
2018-Apr-17 07:00N 26°48' W 114°48'61317.0 330 / 261017.0 1.1 16.016.017.0
2018-Apr-15 19:00N 20°06' W 106°24'21317.7 350 / 101015.0 1.1 26.026.023.0
2018-Apr-15 07:00N 18°06' W 103°18'1312.9 010 / 171012.010.8 26.026.028.0
2018-Apr-15 06:00N 18°00' W 103°06'63117.5 290 / 161012.0 1.1 26.026.028.0
2018-Apr-13 18:00N 14°12' W 092°54'   320 / 101014.0 2.2 32.032.030.0

Dump ship's entire track history